Time;durP1;ratioP1;P1;durP2;ratioP2;P2;SDS_P1;SDS_P2;PMS_P1;PMS_P2;Temp;Humidity;BMP_temperature;BMP_pressure;BME280_temperature;BME280_humidity;BME280_pressure;Samples;Min_cycle;Max_cycle;Signal;HPM_P1;HPM_P2
2024/01/12 00:00:59;;;;;;;135.32;41.92;;;;;;;;;;2034635;29;20064;-57
2024/01/12 00:01:59;;;;;;;127.22;42.67;;;;;;;;;;2034549;29;20052;-57
2024/01/12 00:03:02;;;;;;;118.40;36.83;;;;;;;;;;2034123;29;20176;-57
2024/01/12 00:04:03;;;;;;;132.25;42.60;;;;;;;;;;2034822;29;20036;-57
2024/01/12 00:05:04;;;;;;;139.52;44.53;;;;;;;;;;2034260;29;20111;-58
2024/01/12 00:06:05;;;;;;;128.88;42.58;;;;;;;;;;2033824;29;20044;-58
2024/01/12 00:07:06;;;;;;;137.35;41.40;;;;;;;;;;2034452;29;20040;-58
2024/01/12 00:08:06;;;;;;;133.15;44.08;;;;;;;;;;2034022;29;20492;-58
2024/01/12 00:09:07;;;;;;;135.80;41.45;;;;;;;;;;2034548;29;20036;-58
2024/01/12 00:10:08;;;;;;;137.32;44.83;;;;;;;;;;2034043;29;20055;-57
2024/01/12 00:11:09;;;;;;;125.53;39.28;;;;;;;;;;2034706;29;20044;-57
2024/01/12 00:12:10;;;;;;;131.73;43.90;;;;;;;;;;2026066;29;20503;-58
2024/01/12 00:13:10;;;;;;;129.70;44.22;;;;;;;;;;2026078;29;20048;-58
2024/01/12 00:14:12;;;;;;;148.63;45.90;;;;;;;;;;2034635;29;20147;-58
2024/01/12 00:15:12;;;;;;;136.93;44.88;;;;;;;;;;2025563;29;20049;-57
2024/01/12 00:16:13;;;;;;;118.72;37.67;;;;;;;;;;2026152;29;20036;-58
2024/01/12 00:17:14;;;;;;;130.73;40.13;;;;;;;;;;2034453;29;20068;-58
2024/01/12 00:18:15;;;;;;;75.80;21.20;;;;;;;;;;2034533;29;20072;-58
2024/01/12 00:19:17;;;;;;;131.30;41.20;;;;;;;;;;2026124;29;20040;-58
2024/01/12 00:20:18;;;;;;;141.75;42.80;;;;;;;;;;2026406;29;20035;-58
2024/01/12 00:21:19;;;;;;;130.57;42.88;;;;;;;;;;2033536;29;20484;-58
2024/01/12 00:22:20;;;;;;;127.72;43.90;;;;;;;;;;2034380;29;20469;-58
2024/01/12 00:23:20;;;;;;;134.38;40.90;;;;;;;;;;2034468;29;20032;-58
2024/01/12 00:24:21;;;;;;;132.70;41.85;;;;;;;;;;2033605;29;20091;-58
2024/01/12 00:25:22;;;;;;;139.05;43.08;;;;;;;;;;2034545;29;20075;-58
2024/01/12 00:26:23;;;;;;;113.40;31.98;;;;;;;;;;2034534;29;20058;-58
2024/01/12 00:27:24;;;;;;;138.13;42.30;;;;;;;;;;2034045;29;20055;-58
2024/01/12 00:28:27;;;;;;;123.72;39.80;;;;;;;;;;2034458;29;20064;-58
2024/01/12 00:29:28;;;;;;;131.77;42.90;;;;;;;;;;2034451;29;20031;-58
2024/01/12 00:30:29;;;;;;;88.95;25.08;;;;;;;;;;2034333;29;20035;-58
2024/01/12 00:31:29;;;;;;;133.63;44.90;;;;;;;;;;2034578;29;20039;-58
2024/01/12 00:32:30;;;;;;;116.50;36.53;;;;;;;;;;2034541;29;20032;-58
2024/01/12 00:33:31;;;;;;;130.45;40.67;;;;;;;;;;2034396;29;20035;-58
2024/01/12 00:34:32;;;;;;;121.47;39.70;;;;;;;;;;2033738;29;20048;-57
2024/01/12 00:35:32;;;;;;;120.00;40.28;;;;;;;;;;2034020;29;20397;-57
2024/01/12 00:36:33;;;;;;;134.38;44.78;;;;;;;;;;2033829;29;20127;-57
2024/01/12 00:37:35;;;;;;;142.32;44.55;;;;;;;;;;2033939;29;20035;-58
2024/01/12 00:38:36;;;;;;;126.18;40.28;;;;;;;;;;2034132;29;20047;-57
2024/01/12 00:39:37;;;;;;;119.00;38.00;;;;;;;;;;2033988;29;20039;-58
2024/01/12 00:40:38;;;;;;;130.60;43.65;;;;;;;;;;2034272;29;20381;-58
2024/01/12 00:41:38;;;;;;;128.15;42.35;;;;;;;;;;2034308;29;20048;-58
2024/01/12 00:42:39;;;;;;;136.00;42.00;;;;;;;;;;2034337;29;20072;-57
2024/01/12 00:43:40;;;;;;;133.52;43.25;;;;;;;;;;2034307;29;20051;-58
2024/01/12 00:44:40;;;;;;;122.18;41.88;;;;;;;;;;2034514;29;20044;-58
2024/01/12 00:45:41;;;;;;;138.55;43.00;;;;;;;;;;2033948;29;20055;-58
2024/01/12 00:46:44;;;;;;;117.57;40.83;;;;;;;;;;2034252;29;20109;-58
2024/01/12 00:47:44;;;;;;;124.75;42.50;;;;;;;;;;2034341;29;20044;-58
2024/01/12 00:48:45;;;;;;;118.90;39.60;;;;;;;;;;2034179;29;20469;-58
2024/01/12 00:49:46;;;;;;;130.15;44.00;;;;;;;;;;2034232;29;20179;-58
2024/01/12 00:50:47;;;;;;;129.95;42.60;;;;;;;;;;2034182;29;20032;-58
2024/01/12 00:51:48;;;;;;;117.45;39.47;;;;;;;;;;2034355;29;20457;-58
2024/01/12 00:52:49;;;;;;;98.47;36.30;;;;;;;;;;2034181;29;20115;-58
2024/01/12 00:53:49;;;;;;;115.03;37.47;;;;;;;;;;2034174;29;20477;-58
2024/01/12 00:54:50;;;;;;;122.20;42.30;;;;;;;;;;2033536;29;20126;-58
2024/01/12 00:55:51;;;;;;;118.90;39.78;;;;;;;;;;2034255;29;20468;-58
2024/01/12 00:56:52;;;;;;;124.53;42.88;;;;;;;;;;2034247;29;20044;-58
2024/01/12 00:57:53;;;;;;;120.47;39.08;;;;;;;;;;2034157;29;20040;-58
2024/01/12 00:58:54;;;;;;;121.47;39.92;;;;;;;;;;2033741;29;20459;-58
2024/01/12 00:59:55;;;;;;;104.43;35.90;;;;;;;;;;2034276;29;20043;-58
2024/01/12 01:00:56;;;;;;;113.30;34.85;;;;;;;;;;2025730;29;20044;-58
2024/01/12 01:01:58;;;;;;;125.45;40.75;;;;;;;;;;2025176;29;20079;-58
2024/01/12 01:03:02;;;;;;;117.78;39.92;;;;;;;;;;2034324;29;20048;-58
2024/01/12 01:04:03;;;;;;;106.78;37.05;;;;;;;;;;2034070;29;20051;-58
2024/01/12 01:05:04;;;;;;;110.70;37.92;;;;;;;;;;2034204;29;20396;-63
2024/01/12 01:06:05;;;;;;;126.22;42.10;;;;;;;;;;2034289;29;20040;-58
2024/01/12 01:07:06;;;;;;;114.50;38.28;;;;;;;;;;2034116;29;20036;-58
2024/01/12 01:08:07;;;;;;;122.05;41.60;;;;;;;;;;2033957;29;20044;-58
2024/01/12 01:09:07;;;;;;;116.68;38.90;;;;;;;;;;2034138;29;20071;-58
2024/01/12 01:10:08;;;;;;;119.00;39.97;;;;;;;;;;2034105;29;20410;-58
2024/01/12 01:11:09;;;;;;;127.50;42.80;;;;;;;;;;2034079;29;20521;-58
2024/01/12 01:12:10;;;;;;;121.30;40.80;;;;;;;;;;2033791;29;20083;-58
2024/01/12 01:13:12;;;;;;;102.03;33.85;;;;;;;;;;2034159;29;20094;-58
2024/01/12 01:14:12;;;;;;;112.00;40.38;;;;;;;;;;2034100;29;20036;-58
2024/01/12 01:15:14;;;;;;;130.98;42.17;;;;;;;;;;2025717;29;20532;-58
2024/01/12 01:16:15;;;;;;;117.43;40.20;;;;;;;;;;2025741;29;20473;-58
2024/01/12 01:17:16;;;;;;;112.55;40.38;;;;;;;;;;2033903;29;20040;-58
2024/01/12 01:18:17;;;;;;;116.50;40.67;;;;;;;;;;2033376;29;20068;-58
2024/01/12 01:19:18;;;;;;;126.32;42.83;;;;;;;;;;2033772;29;20036;-58
2024/01/12 01:20:19;;;;;;;115.80;39.00;;;;;;;;;;2034253;29;20115;-58
2024/01/12 01:21:20;;;;;;;120.57;42.60;;;;;;;;;;2034010;29;20047;-58
2024/01/12 01:22:20;;;;;;;133.65;43.30;;;;;;;;;;2033865;29;20071;-58
2024/01/12 01:23:21;;;;;;;121.18;41.70;;;;;;;;;;2034034;29;20417;-58
2024/01/12 01:24:26;;;;;;;120.32;41.60;;;;;;;;;;2033925;29;20457;-58
2024/01/12 01:25:27;;;;;;;111.10;38.42;;;;;;;;;;2033993;29;20043;-58
2024/01/12 01:26:28;;;;;;;121.18;40.92;;;;;;;;;;2033918;29;20032;-58
2024/01/12 01:27:29;;;;;;;114.20;40.17;;;;;;;;;;2033966;29;20064;-58
2024/01/12 01:28:29;;;;;;;115.35;40.30;;;;;;;;;;2033501;29;20047;-58
2024/01/12 01:29:30;;;;;;;112.65;40.80;;;;;;;;;;2033962;29;20509;-58
2024/01/12 01:30:31;;;;;;;113.68;42.67;;;;;;;;;;2034034;29;20397;-58
2024/01/12 01:31:32;;;;;;;118.53;42.03;;;;;;;;;;2033932;29;20071;-58
2024/01/12 01:32:33;;;;;;;111.90;40.97;;;;;;;;;;2033534;29;20043;-58
2024/01/12 01:33:33;;;;;;;110.35;40.45;;;;;;;;;;2033918;29;20036;-58
2024/01/12 01:34:34;;;;;;;120.07;42.75;;;;;;;;;;2034134;29;20036;-58
2024/01/12 01:35:35;;;;;;;107.50;39.78;;;;;;;;;;2033780;29;20070;-58
2024/01/12 01:36:35;;;;;;;108.35;40.80;;;;;;;;;;2033803;29;20040;-58
2024/01/12 01:37:37;;;;;;;112.97;39.80;;;;;;;;;;2033776;29;20043;-58
2024/01/12 01:38:37;;;;;;;117.72;41.63;;;;;;;;;;2033882;29;20032;-58
2024/01/12 01:39:38;;;;;;;118.22;41.60;;;;;;;;;;2033856;29;20048;-58
2024/01/12 01:40:39;;;;;;;116.22;40.45;;;;;;;;;;2033840;29;20075;-58
2024/01/12 01:41:40;;;;;;;114.18;40.80;;;;;;;;;;2033685;29;20048;-58
2024/01/12 01:42:40;;;;;;;120.03;41.65;;;;;;;;;;2033947;29;20075;-58
2024/01/12 01:43:41;;;;;;;125.90;45.95;;;;;;;;;;2033950;29;20467;-58
2024/01/12 01:44:42;;;;;;;112.78;43.03;;;;;;;;;;2033849;29;20493;-58
2024/01/12 01:45:42;;;;;;;110.60;41.70;;;;;;;;;;2033787;29;20040;-58
2024/01/12 01:46:43;;;;;;;110.97;39.88;;;;;;;;;;2033913;29;20067;-58
2024/01/12 01:47:45;;;;;;;105.82;38.65;;;;;;;;;;2025294;29;20040;-58
2024/01/12 01:48:45;;;;;;;120.35;40.03;;;;;;;;;;2017151;29;20048;-58
2024/01/12 01:49:46;;;;;;;112.05;41.55;;;;;;;;;;2025787;29;20481;-58
2024/01/12 01:50:47;;;;;;;122.75;40.40;;;;;;;;;;2033752;29;20059;-58
2024/01/12 01:51:48;;;;;;;120.63;41.60;;;;;;;;;;2033208;29;20056;-58
2024/01/12 01:52:48;;;;;;;113.22;41.53;;;;;;;;;;2025488;29;20481;-58
2024/01/12 01:53:49;;;;;;;118.03;41.20;;;;;;;;;;2025447;29;20044;-58
2024/01/12 01:54:51;;;;;;;114.70;39.95;;;;;;;;;;2025326;29;20051;-58
2024/01/12 01:55:51;;;;;;;118.63;41.10;;;;;;;;;;2017816;29;20041;-58
2024/01/12 01:56:52;;;;;;;120.05;41.85;;;;;;;;;;2025751;29;20481;-58
2024/01/12 01:57:53;;;;;;;109.40;39.20;;;;;;;;;;2025366;29;20037;-58
2024/01/12 01:58:54;;;;;;;122.13;41.80;;;;;;;;;;2025568;29;20128;-58
2024/01/12 01:59:54;;;;;;;117.15;41.00;;;;;;;;;;2025581;29;20068;-58
2024/01/12 02:00:55;;;;;;;105.85;37.28;;;;;;;;;;2025295;29;20059;-60
2024/01/12 02:01:56;;;;;;;111.03;37.05;;;;;;;;;;2025284;29;20095;-58
2024/01/12 02:02:57;;;;;;;125.88;42.22;;;;;;;;;;2025488;29;20154;-58
2024/01/12 02:03:58;;;;;;;117.70;40.65;;;;;;;;;;2025433;29;20036;-58
2024/01/12 02:04:58;;;;;;;115.15;39.90;;;;;;;;;;2017846;29;20033;-58
2024/01/12 02:05:59;;;;;;;117.35;40.08;;;;;;;;;;2025291;29;20036;-58
2024/01/12 02:07:00;;;;;;;114.57;41.17;;;;;;;;;;2033751;29;20140;-58
2024/01/12 02:08:01;;;;;;;118.97;40.70;;;;;;;;;;2033295;29;20052;-58
2024/01/12 02:09:04;;;;;;;121.03;41.53;;;;;;;;;;2025655;29;20040;-58
2024/01/12 02:10:06;;;;;;;117.50;40.88;;;;;;;;;;2024966;29;20474;-58
2024/01/12 02:11:06;;;;;;;114.15;39.83;;;;;;;;;;2033422;29;20040;-58
2024/01/12 02:12:07;;;;;;;119.05;42.03;;;;;;;;;;2033733;29;20040;-58
2024/01/12 02:13:08;;;;;;;122.47;39.88;;;;;;;;;;2032982;29;20052;-58
2024/01/12 02:14:09;;;;;;;117.28;39.70;;;;;;;;;;2025396;29;20402;-58
2024/01/12 02:15:10;;;;;;;122.05;44.08;;;;;;;;;;2017703;29;20486;-58
2024/01/12 02:16:11;;;;;;;116.10;41.17;;;;;;;;;;2025705;29;20056;-58
2024/01/12 02:17:11;;;;;;;119.13;41.28;;;;;;;;;;2033802;29;20437;-58
2024/01/12 02:18:12;;;;;;;108.35;40.72;;;;;;;;;;2025585;29;20512;-58
2024/01/12 02:19:13;;;;;;;118.80;40.60;;;;;;;;;;2017373;29;20136;-58
2024/01/12 02:20:13;;;;;;;122.90;40.42;;;;;;;;;;2025158;29;20059;-57
2024/01/12 02:21:14;;;;;;;124.72;44.75;;;;;;;;;;2033870;29;20064;-57
2024/01/12 02:22:15;;;;;;;116.38;40.60;;;;;;;;;;2033697;29;20044;-58
2024/01/12 02:23:16;;;;;;;109.97;40.38;;;;;;;;;;2033029;29;20032;-58
2024/01/12 02:24:16;;;;;;;83.18;28.00;;;;;;;;;;2033864;29;20060;-57
2024/01/12 02:25:17;;;;;;;112.80;41.25;;;;;;;;;;2033174;29;20048;-58
2024/01/12 02:26:18;;;;;;;112.75;41.03;;;;;;;;;;2033605;29;20044;-57
2024/01/12 02:27:19;;;;;;;122.97;42.35;;;;;;;;;;2024954;29;20063;-58
2024/01/12 02:28:19;;;;;;;126.15;42.83;;;;;;;;;;2025418;29;20453;-58
2024/01/12 02:29:20;;;;;;;129.43;48.33;;;;;;;;;;2033772;29;20064;-58
2024/01/12 02:30:21;;;;;;;126.75;46.90;;;;;;;;;;2025333;29;20456;-58
2024/01/12 02:31:22;;;;;;;120.25;41.75;;;;;;;;;;2009939;29;20434;-58
2024/01/12 02:32:22;;;;;;;125.47;44.17;;;;;;;;;;2017555;29;20511;-58
2024/01/12 02:33:23;;;;;;;120.40;41.95;;;;;;;;;;2017539;29;20037;-57
2024/01/12 02:34:24;;;;;;;112.68;39.28;;;;;;;;;;2025307;29;20063;-58
2024/01/12 02:35:25;;;;;;;132.88;44.53;;;;;;;;;;2033340;29;20076;-58
2024/01/12 02:36:29;;;;;;;114.43;39.20;;;;;;;;;;2032931;29;20048;-58
2024/01/12 02:37:29;;;;;;;121.20;43.75;;;;;;;;;;2032916;29;20048;-58
2024/01/12 02:38:30;;;;;;;128.88;44.20;;;;;;;;;;2033497;29;20039;-58
2024/01/12 02:39:31;;;;;;;118.93;42.13;;;;;;;;;;2033687;29;20071;-58
2024/01/12 02:40:31;;;;;;;121.95;43.80;;;;;;;;;;2033017;29;20075;-57
2024/01/12 02:41:32;;;;;;;114.00;41.60;;;;;;;;;;2033896;29;20035;-58
2024/01/12 02:42:33;;;;;;;116.78;38.83;;;;;;;;;;2033587;29;20072;-58
2024/01/12 02:43:33;;;;;;;125.13;42.70;;;;;;;;;;2033726;29;20396;-57
2024/01/12 02:44:34;;;;;;;134.68;42.65;;;;;;;;;;2034252;29;20492;-58
2024/01/12 02:45:35;;;;;;;120.35;41.08;;;;;;;;;;2034557;29;20070;-57
2024/01/12 02:46:36;;;;;;;124.28;42.90;;;;;;;;;;2034888;29;20055;-58
2024/01/12 02:47:36;;;;;;;113.88;42.70;;;;;;;;;;2035267;29;20060;-58
2024/01/12 02:48:37;;;;;;;107.50;38.33;;;;;;;;;;2035224;29;20036;-58
2024/01/12 02:49:38;;;;;;;122.30;44.22;;;;;;;;;;2035227;29;20066;-58
2024/01/12 02:50:39;;;;;;;122.40;42.60;;;;;;;;;;2035262;29;20088;-58
2024/01/12 02:51:39;;;;;;;113.60;38.45;;;;;;;;;;2026545;29;20055;-58
2024/01/12 02:52:40;;;;;;;118.10;42.40;;;;;;;;;;2026698;29;20068;-58
2024/01/12 02:53:41;;;;;;;120.10;42.17;;;;;;;;;;2034552;29;20051;-58
2024/01/12 02:54:42;;;;;;;118.15;43.03;;;;;;;;;;2035266;29;20036;-58
2024/01/12 02:55:42;;;;;;;132.00;42.53;;;;;;;;;;2034840;29;20048;-58
2024/01/12 02:56:43;;;;;;;99.68;33.40;;;;;;;;;;2035101;29;20040;-58
2024/01/12 02:57:44;;;;;;;115.07;37.78;;;;;;;;;;2035046;29;20070;-57
2024/01/12 02:58:44;;;;;;;124.72;43.22;;;;;;;;;;2034946;29;20043;-58
2024/01/12 02:59:45;;;;;;;115.20;40.47;;;;;;;;;;2034478;29;20079;-57
2024/01/12 03:00:46;;;;;;;118.65;41.55;;;;;;;;;;2035101;29;20469;-58
2024/01/12 03:01:47;;;;;;;117.03;41.17;;;;;;;;;;2035259;29;20476;-58
2024/01/12 03:02:47;;;;;;;112.95;39.58;;;;;;;;;;2035049;29;20036;-58
2024/01/12 03:03:48;;;;;;;62.60;22.27;;;;;;;;;;2035170;29;20117;-57
2024/01/12 03:04:49;;;;;;;110.07;37.92;;;;;;;;;;2035158;29;20032;-58
2024/01/12 03:05:50;;;;;;;94.97;28.65;;;;;;;;;;2035063;29;20067;-58
2024/01/12 03:06:50;;;;;;;109.47;36.92;;;;;;;;;;2034708;29;20059;-58
2024/01/12 03:07:51;;;;;;;86.03;28.13;;;;;;;;;;2034734;29;20055;-58
2024/01/12 03:08:52;;;;;;;101.45;35.05;;;;;;;;;;2034942;29;20036;-58
2024/01/12 03:09:53;;;;;;;104.07;38.30;;;;;;;;;;2035047;29;20389;-58
2024/01/12 03:10:53;;;;;;;101.93;39.00;;;;;;;;;;2033955;29;20555;-58
2024/01/12 03:11:54;;;;;;;103.20;38.63;;;;;;;;;;2035023;29;20063;-58
2024/01/12 03:12:55;;;;;;;107.47;38.28;;;;;;;;;;2034806;29;20048;-58
2024/01/12 03:13:56;;;;;;;106.47;38.05;;;;;;;;;;2034791;29;20055;-58
2024/01/12 03:14:56;;;;;;;101.80;36.85;;;;;;;;;;2035013;29;20063;-58
2024/01/12 03:15:57;;;;;;;104.45;38.20;;;;;;;;;;2034851;29;20048;-58
2024/01/12 03:16:58;;;;;;;98.13;36.22;;;;;;;;;;2034862;29;20513;-58
2024/01/12 03:17:59;;;;;;;80.60;29.00;;;;;;;;;;2034985;29;20091;-58
2024/01/12 03:18:59;;;;;;;105.40;38.88;;;;;;;;;;2035198;29;20453;-58
2024/01/12 03:20:00;;;;;;;97.47;34.92;;;;;;;;;;2034594;29;20528;-58
2024/01/12 03:21:01;;;;;;;97.35;34.40;;;;;;;;;;2034842;29;20063;-58
2024/01/12 03:22:02;;;;;;;101.22;38.13;;;;;;;;;;2025967;29;20398;-58
2024/01/12 03:23:02;;;;;;;104.47;37.92;;;;;;;;;;2026651;29;20140;-58
2024/01/12 03:24:03;;;;;;;100.13;37.05;;;;;;;;;;2035039;29;20040;-58
2024/01/12 03:25:04;;;;;;;104.00;40.25;;;;;;;;;;2034917;29;20036;-58
2024/01/12 03:26:05;;;;;;;104.85;37.97;;;;;;;;;;2034792;29;20052;-58
2024/01/12 03:27:05;;;;;;;92.35;32.78;;;;;;;;;;2034432;29;20087;-58
2024/01/12 03:28:08;;;;;;;92.28;34.05;;;;;;;;;;2025884;29;20052;-57
2024/01/12 03:29:09;;;;;;;104.20;36.20;;;;;;;;;;2026693;29;20048;-58
2024/01/12 03:30:10;;;;;;;96.55;35.97;;;;;;;;;;2034928;29;20063;-57
2024/01/12 03:31:11;;;;;;;103.20;37.17;;;;;;;;;;2034979;29;20047;-58
2024/01/12 03:32:11;;;;;;;98.35;36.95;;;;;;;;;;2034897;29;20032;-58
2024/01/12 03:33:12;;;;;;;94.00;32.13;;;;;;;;;;2035004;29;20396;-58
2024/01/12 03:34:13;;;;;;;95.65;35.80;;;;;;;;;;2034938;29;20472;-58
2024/01/12 03:35:13;;;;;;;95.82;36.47;;;;;;;;;;2034641;29;20051;-58
2024/01/12 03:36:14;;;;;;;100.35;38.15;;;;;;;;;;2034838;29;20040;-58
2024/01/12 03:37:15;;;;;;;99.30;37.47;;;;;;;;;;2034633;29;20056;-58
2024/01/12 03:38:16;;;;;;;97.72;35.97;;;;;;;;;;2034539;29;20068;-58
2024/01/12 03:39:17;;;;;;;94.07;35.67;;;;;;;;;;2034970;29;20064;-58
2024/01/12 03:40:17;;;;;;;99.93;36.33;;;;;;;;;;2034095;29;20392;-58
2024/01/12 03:41:18;;;;;;;96.07;35.70;;;;;;;;;;2026519;29;20504;-58
2024/01/12 03:42:19;;;;;;;103.22;37.95;;;;;;;;;;2026505;29;20032;-58
2024/01/12 03:43:19;;;;;;;102.40;37.28;;;;;;;;;;2034123;29;20075;-57
2024/01/12 03:44:20;;;;;;;97.20;35.42;;;;;;;;;;2034668;29;20084;-57
2024/01/12 03:45:21;;;;;;;101.47;36.05;;;;;;;;;;2034343;29;20051;-58
2024/01/12 03:46:22;;;;;;;104.35;35.92;;;;;;;;;;2025577;29;20512;-58
2024/01/12 03:47:22;;;;;;;104.15;34.28;;;;;;;;;;2026069;29;20405;-57
2024/01/12 03:48:23;;;;;;;105.03;36.53;;;;;;;;;;2034603;29;20524;-57
2024/01/12 03:49:24;;;;;;;102.97;36.20;;;;;;;;;;2034805;29;20464;-57
2024/01/12 03:50:25;;;;;;;105.95;37.05;;;;;;;;;;2034807;29;20029;-57
2024/01/12 03:51:25;;;;;;;98.65;37.53;;;;;;;;;;2034762;29;20127;-58
2024/01/12 03:52:26;;;;;;;103.22;38.20;;;;;;;;;;2026282;29;20118;-58
2024/01/12 03:53:27;;;;;;;108.25;38.47;;;;;;;;;;2026142;29;20056;-58
2024/01/12 03:54:27;;;;;;;99.93;35.05;;;;;;;;;;2034644;29;20040;-57
2024/01/12 03:55:28;;;;;;;105.72;37.20;;;;;;;;;;2034417;29;20127;-58
2024/01/12 03:56:29;;;;;;;90.88;32.15;;;;;;;;;;2034593;29;20032;-58
2024/01/12 03:57:30;;;;;;;100.80;33.97;;;;;;;;;;2034631;29;20044;-57
2024/01/12 03:58:30;;;;;;;102.75;33.58;;;;;;;;;;2034424;29;20040;-57
2024/01/12 03:59:31;;;;;;;100.88;34.28;;;;;;;;;;2034327;29;20562;-57
2024/01/12 04:00:32;;;;;;;100.10;35.95;;;;;;;;;;2034600;29;20404;-58
2024/01/12 04:01:32;;;;;;;93.57;32.80;;;;;;;;;;2026406;29;20493;-57
2024/01/12 04:02:33;;;;;;;101.45;33.22;;;;;;;;;;2026206;29;20044;-58
2024/01/12 04:03:34;;;;;;;101.40;34.53;;;;;;;;;;2034500;29;20056;-58
2024/01/12 04:04:35;;;;;;;105.28;35.83;;;;;;;;;;2034828;29;20111;-57
2024/01/12 04:05:35;;;;;;;109.50;37.88;;;;;;;;;;2034178;29;20082;-58
2024/01/12 04:06:36;;;;;;;105.28;37.13;;;;;;;;;;2026309;29;20068;-57
2024/01/12 04:07:37;;;;;;;96.45;30.88;;;;;;;;;;2026455;29;20065;-57
2024/01/12 04:08:38;;;;;;;118.90;40.25;;;;;;;;;;2026150;29;20060;-57
2024/01/12 04:09:38;;;;;;;108.07;37.20;;;;;;;;;;2026290;29;20045;-57
2024/01/12 04:10:39;;;;;;;110.32;36.00;;;;;;;;;;2034121;29;20060;-58
2024/01/12 04:11:40;;;;;;;117.57;37.65;;;;;;;;;;2034655;29;20039;-57
2024/01/12 04:12:40;;;;;;;113.93;38.20;;;;;;;;;;2034187;29;20501;-58
2024/01/12 04:13:41;;;;;;;109.85;32.63;;;;;;;;;;2034581;29;20035;-57
2024/01/12 04:14:48;;;;;;;114.10;37.10;;;;;;;;;;2026417;29;20520;-58
2024/01/12 04:15:48;;;;;;;97.88;30.73;;;;;;;;;;2026709;29;20051;-58
2024/01/12 04:16:49;;;;;;;122.10;37.75;;;;;;;;;;2034487;29;20416;-58
2024/01/12 04:17:50;;;;;;;109.03;33.10;;;;;;;;;;2034814;29;20469;-57
2024/01/12 04:18:51;;;;;;;110.80;36.42;;;;;;;;;;2034442;29;20048;-58
2024/01/12 04:19:51;;;;;;;87.57;29.17;;;;;;;;;;2034486;29;20404;-58
2024/01/12 04:20:52;;;;;;;123.25;38.38;;;;;;;;;;2034451;29;20713;-58
2024/01/12 04:21:53;;;;;;;122.45;38.33;;;;;;;;;;2034557;29;20068;-57
2024/01/12 04:22:54;;;;;;;123.40;38.97;;;;;;;;;;2025439;29;20056;-58
2024/01/12 04:23:55;;;;;;;115.90;38.70;;;;;;;;;;2026226;29;20036;-58
2024/01/12 04:24:55;;;;;;;119.13;37.63;;;;;;;;;;2034252;29;20043;-57
2024/01/12 04:25:57;;;;;;;121.43;37.75;;;;;;;;;;2034485;29;20441;-57
2024/01/12 04:26:57;;;;;;;117.13;39.38;;;;;;;;;;2034526;29;20491;-57
2024/01/12 04:27:58;;;;;;;129.13;40.30;;;;;;;;;;2034498;29;20036;-57
2024/01/12 04:28:59;;;;;;;116.93;38.70;;;;;;;;;;2034327;29;20044;-58
2024/01/12 04:29:59;;;;;;;116.65;37.50;;;;;;;;;;2034366;29;20043;-59
2024/01/12 04:31:01;;;;;;;124.68;39.28;;;;;;;;;;2034469;29;20521;-57
2024/01/12 04:32:01;;;;;;;122.25;37.28;;;;;;;;;;2034521;29;20036;-58
2024/01/12 04:33:02;;;;;;;117.25;36.05;;;;;;;;;;2034497;29;20040;-58
2024/01/12 04:34:03;;;;;;;123.55;40.03;;;;;;;;;;2034489;29;20059;-58
2024/01/12 04:35:04;;;;;;;123.25;36.55;;;;;;;;;;2034373;29;20080;-58
2024/01/12 04:36:05;;;;;;;124.00;39.65;;;;;;;;;;2034469;29;20036;-58
2024/01/12 04:37:05;;;;;;;123.93;39.10;;;;;;;;;;2034140;29;20549;-58
2024/01/12 04:38:08;;;;;;;118.68;39.10;;;;;;;;;;2034447;29;20040;-59
2024/01/12 04:39:09;;;;;;;114.05;36.72;;;;;;;;;;2025666;29;20049;-58
2024/01/12 04:40:10;;;;;;;119.43;40.90;;;;;;;;;;2026279;29;20089;-57
2024/01/12 04:41:11;;;;;;;124.28;40.90;;;;;;;;;;2034283;29;20044;-58
2024/01/12 04:42:11;;;;;;;128.65;42.08;;;;;;;;;;2034124;29;20044;-58
2024/01/12 04:43:12;;;;;;;125.22;39.75;;;;;;;;;;2034364;29;20039;-58
2024/01/12 04:44:13;;;;;;;117.88;38.95;;;;;;;;;;2033941;29;20071;-57
2024/01/12 04:45:14;;;;;;;117.82;38.60;;;;;;;;;;2034440;29;20071;-57
2024/01/12 04:46:14;;;;;;;132.70;40.03;;;;;;;;;;2034224;29;20044;-58
2024/01/12 04:47:15;;;;;;;127.00;38.67;;;;;;;;;;2034222;29;20098;-58
2024/01/12 04:48:16;;;;;;;114.18;37.50;;;;;;;;;;2034332;29;20112;-57
2024/01/12 04:49:16;;;;;;;119.50;39.95;;;;;;;;;;2026060;29;20129;-58
2024/01/12 04:50:17;;;;;;;117.80;39.13;;;;;;;;;;2025938;29;20036;-58
2024/01/12 04:51:18;;;;;;;122.32;38.88;;;;;;;;;;2034331;29;20032;-58
2024/01/12 04:52:19;;;;;;;119.50;38.53;;;;;;;;;;2034291;29;20437;-58
2024/01/12 04:53:19;;;;;;;117.30;39.10;;;;;;;;;;2034314;29;20040;-58
2024/01/12 04:54:20;;;;;;;119.03;39.58;;;;;;;;;;2034265;29;20384;-59
2024/01/12 04:55:21;;;;;;;123.07;40.30;;;;;;;;;;2034176;29;20481;-58
2024/01/12 04:56:21;;;;;;;124.38;42.13;;;;;;;;;;2034365;29;20075;-58
2024/01/12 04:57:22;;;;;;;127.18;39.13;;;;;;;;;;2034310;29;20039;-58
2024/01/12 04:58:23;;;;;;;117.35;37.90;;;;;;;;;;2033278;29;20072;-58
2024/01/12 04:59:24;;;;;;;129.50;39.10;;;;;;;;;;2033949;29;20139;-58
2024/01/12 05:00:25;;;;;;;119.97;38.58;;;;;;;;;;2034189;29;20035;-58
2024/01/12 05:01:26;;;;;;;128.82;40.92;;;;;;;;;;2033889;29;20133;-59
2024/01/12 05:02:27;;;;;;;130.57;39.63;;;;;;;;;;2034322;29;20024;-58
2024/01/12 05:03:27;;;;;;;130.07;40.40;;;;;;;;;;2025826;29;20489;-57
2024/01/12 05:04:28;;;;;;;118.45;37.63;;;;;;;;;;2025920;29;20469;-58
2024/01/12 05:05:29;;;;;;;122.57;39.53;;;;;;;;;;2033993;29;20051;-58
2024/01/12 05:06:30;;;;;;;132.88;39.45;;;;;;;;;;2034177;29;20036;-58
2024/01/12 05:07:30;;;;;;;137.48;41.13;;;;;;;;;;2033582;29;20392;-58
2024/01/12 05:08:33;;;;;;;135.35;39.38;;;;;;;;;;2033391;29;20489;-58
2024/01/12 05:09:34;;;;;;;135.88;38.40;;;;;;;;;;2033931;29;20039;-58
2024/01/12 05:10:35;;;;;;;135.00;40.47;;;;;;;;;;2033490;29;20492;-58
2024/01/12 05:11:35;;;;;;;133.00;41.08;;;;;;;;;;2033997;29;20067;-57
2024/01/12 05:12:36;;;;;;;124.65;39.45;;;;;;;;;;2034143;29;20028;-57
2024/01/12 05:13:37;;;;;;;135.00;39.10;;;;;;;;;;2034048;29;20070;-57
2024/01/12 05:14:38;;;;;;;148.35;44.10;;;;;;;;;;2034093;29;20039;-58
2024/01/12 05:15:38;;;;;;;136.15;41.30;;;;;;;;;;2033371;29;20044;-58
2024/01/12 05:16:40;;;;;;;131.15;41.92;;;;;;;;;;2034151;29;20071;-58
2024/01/12 05:17:41;;;;;;;133.63;41.25;;;;;;;;;;2033474;29;20054;-58
2024/01/12 05:18:42;;;;;;;134.60;41.70;;;;;;;;;;2034229;29;20036;-58
2024/01/12 05:19:42;;;;;;;141.20;42.38;;;;;;;;;;2034136;29;20032;-58
2024/01/12 05:20:43;;;;;;;139.32;40.53;;;;;;;;;;2033870;29;20064;-58
2024/01/12 05:21:44;;;;;;;142.43;41.85;;;;;;;;;;2034009;29;20090;-58
2024/01/12 05:22:45;;;;;;;146.43;43.95;;;;;;;;;;2033525;29;20067;-59
2024/01/12 05:23:45;;;;;;;148.27;43.80;;;;;;;;;;2033530;29;20437;-58
2024/01/12 05:24:46;;;;;;;141.43;43.08;;;;;;;;;;2033662;29;20393;-58
2024/01/12 05:25:47;;;;;;;139.95;43.17;;;;;;;;;;2034001;29;20036;-58
2024/01/12 05:26:48;;;;;;;153.88;44.92;;;;;;;;;;2033291;29;20499;-58
2024/01/12 05:27:48;;;;;;;148.82;43.60;;;;;;;;;;2033971;29;20067;-58
2024/01/12 05:28:49;;;;;;;144.98;42.15;;;;;;;;;;2033404;29;20079;-58
2024/01/12 05:29:50;;;;;;;134.50;43.28;;;;;;;;;;2034007;29;20040;-58
2024/01/12 05:30:50;;;;;;;142.48;43.72;;;;;;;;;;2034110;29;20059;-58
2024/01/12 05:31:52;;;;;;;138.52;41.33;;;;;;;;;;2032934;29;20052;-58
2024/01/12 05:32:53;;;;;;;137.32;43.30;;;;;;;;;;2033783;29;20045;-58
2024/01/12 05:33:53;;;;;;;137.85;43.22;;;;;;;;;;2033638;29;20109;-58
2024/01/12 05:34:54;;;;;;;152.82;47.90;;;;;;;;;;2033078;29;20143;-58
2024/01/12 05:35:55;;;;;;;139.90;44.08;;;;;;;;;;2033921;29;20031;-57
2024/01/12 05:36:55;;;;;;;132.80;42.38;;;;;;;;;;2033024;29;20378;-57
2024/01/12 05:37:56;;;;;;;132.07;41.50;;;;;;;;;;2025026;29;20052;-57
2024/01/12 05:38:57;;;;;;;140.40;44.17;;;;;;;;;;2025251;29;20078;-58
2024/01/12 05:39:58;;;;;;;138.30;41.97;;;;;;;;;;2033624;29;20477;-58
2024/01/12 05:40:59;;;;;;;144.15;43.40;;;;;;;;;;2033677;29;20051;-58
2024/01/12 05:42:00;;;;;;;143.77;42.97;;;;;;;;;;2033997;29;20038;-58
2024/01/12 05:43:00;;;;;;;146.68;44.20;;;;;;;;;;2033311;29;20078;-57
2024/01/12 05:44:01;;;;;;;142.55;43.05;;;;;;;;;;2034112;29;20051;-58
2024/01/12 05:45:02;;;;;;;140.98;42.47;;;;;;;;;;2033822;29;20068;-58
2024/01/12 05:46:03;;;;;;;148.05;42.53;;;;;;;;;;2033983;29;20055;-58
2024/01/12 05:47:04;;;;;;;146.90;41.08;;;;;;;;;;2025487;29;20040;-57
2024/01/12 05:48:05;;;;;;;139.20;42.28;;;;;;;;;;2024569;29;20135;-58
2024/01/12 05:49:06;;;;;;;142.05;43.65;;;;;;;;;;2033877;29;20036;-58
2024/01/12 05:50:07;;;;;;;139.43;40.58;;;;;;;;;;2033870;29;20040;-57